createdAt,value
2023-05-11T05:50:47.089Z,13.48
2023-05-11T05:53:13.918Z,13.43
2023-05-11T05:55:40.817Z,13.46
2023-05-11T05:58:07.644Z,13.49
2023-05-11T06:00:35.915Z,13.54
2023-05-11T06:03:02.936Z,13.55
2023-05-11T06:05:29.877Z,13.58
2023-05-11T06:08:09.162Z,13.65
2023-05-11T06:10:37.340Z,13.78
2023-05-11T06:13:04.171Z,13.80
2023-05-11T06:15:31.099Z,13.80
2023-05-11T06:17:58.006Z,13.76
2023-05-11T06:20:25.002Z,13.80
2023-05-11T06:22:51.825Z,13.88
2023-05-11T06:25:18.702Z,13.88
2023-05-11T06:27:45.514Z,13.93
2023-05-11T06:30:12.635Z,14.00
2023-05-11T06:32:39.461Z,14.14
2023-05-11T06:35:06.799Z,14.18
2023-05-11T06:37:33.661Z,14.21
2023-05-11T06:40:00.474Z,14.24
2023-05-11T06:42:27.454Z,14.30
2023-05-11T06:44:54.259Z,14.35
2023-05-11T06:47:21.275Z,14.40
2023-05-11T06:49:48.639Z,14.39
2023-05-11T06:52:15.532Z,14.41
2023-05-11T06:54:42.430Z,14.41
2023-05-11T06:57:09.235Z,14.45
2023-05-11T06:59:36.584Z,14.51
2023-05-11T07:02:03.449Z,14.62
2023-05-11T07:04:30.328Z,14.60
2023-05-11T07:06:57.268Z,14.55
2023-05-11T07:09:24.183Z,14.54
2023-05-11T07:11:52.303Z,14.52
2023-05-11T07:14:19.353Z,14.55
2023-05-11T07:16:46.705Z,14.56
2023-05-11T07:19:13.735Z,14.58
2023-05-11T07:21:40.799Z,14.63
2023-05-11T07:24:07.675Z,14.59
2023-05-11T07:26:34.573Z,14.60
2023-05-11T07:29:01.471Z,14.59
2023-05-11T07:31:30.220Z,14.64
2023-05-11T07:33:57.252Z,14.70
2023-05-11T07:36:24.198Z,14.75
2023-05-11T07:38:52.329Z,14.76
2023-05-11T07:41:19.411Z,14.75
2023-05-11T07:43:46.548Z,14.76
2023-05-11T07:46:13.500Z,14.78
2023-05-11T07:48:40.565Z,14.75
2023-05-11T07:51:07.838Z,14.80
2023-05-11T07:53:35.034Z,14.78
2023-05-11T07:56:03.828Z,14.89
2023-05-11T07:58:30.820Z,14.85
2023-05-11T08:00:57.866Z,14.83
2023-05-11T08:03:25.027Z,14.85
2023-05-11T08:05:52.196Z,14.85
2023-05-11T08:08:25.372Z,14.88
2023-05-11T08:10:52.513Z,14.90
2023-05-11T08:13:20.151Z,14.93
2023-05-11T08:15:47.162Z,14.98
2023-05-11T08:18:14.419Z,15.02
2023-05-11T08:20:42.544Z,15.05
2023-05-11T08:23:11.276Z,15.10
2023-05-11T08:25:38.182Z,15.15
2023-05-11T08:28:05.049Z,15.20
2023-05-11T08:30:31.888Z,15.26
2023-05-11T08:32:59.447Z,15.30
2023-05-11T08:35:26.628Z,15.34
2023-05-11T08:37:53.436Z,15.36
2023-05-11T08:40:20.666Z,15.38
2023-05-11T08:42:49.908Z,15.46
2023-05-11T08:45:18.489Z,15.54
2023-05-11T08:47:46.484Z,15.61
2023-05-11T08:50:13.324Z,15.69
2023-05-11T08:52:40.993Z,15.74
2023-05-11T08:55:10.980Z,15.80
2023-05-11T08:57:38.985Z,15.84
2023-05-11T09:00:07.655Z,15.88
2023-05-11T09:02:35.214Z,15.88
2023-05-11T09:05:04.590Z,15.84
2023-05-11T09:07:32.128Z,15.84
2023-05-11T09:10:02.269Z,15.80
2023-05-11T09:12:29.362Z,15.69
2023-05-11T09:15:02.031Z,15.62
2023-05-11T09:17:29.817Z,15.53
2023-05-11T09:20:09.622Z,15.47
2023-05-11T09:22:47.129Z,15.49
2023-05-11T09:25:15.299Z,15.55
2023-05-11T09:27:46.515Z,15.55
2023-05-11T09:33:02.708Z,15.49
2023-05-11T09:35:31.844Z,15.35
2023-05-11T09:38:02.960Z,15.31
2023-05-11T09:40:34.215Z,15.37
2023-05-11T09:43:02.850Z,15.37
2023-05-11T09:45:37.161Z,15.45
2023-05-11T09:48:05.616Z,15.46
2023-05-11T09:50:33.949Z,15.58
2023-05-11T09:53:01.087Z,15.63
2023-05-11T09:55:28.201Z,15.76
2023-05-11T09:57:59.894Z,15.84
2023-05-11T10:00:27.232Z,15.87
2023-05-11T10:03:04.569Z,15.82
2023-05-11T10:05:36.087Z,15.81
2023-05-11T10:08:05.339Z,15.79
2023-05-11T10:10:35.431Z,15.78
2023-05-11T10:13:03.187Z,15.76
2023-05-11T10:15:30.855Z,15.70
2023-05-11T10:18:01.390Z,15.64
2023-05-11T10:20:29.032Z,15.65
2023-05-11T10:22:56.462Z,15.60
2023-05-11T10:25:25.101Z,15.61
2023-05-11T10:27:52.641Z,15.64
2023-05-11T10:30:19.965Z,15.69
2023-05-11T10:32:47.578Z,15.80
2023-05-11T10:35:14.822Z,15.86
2023-05-11T10:37:44.611Z,15.98
2023-05-11T10:40:12.131Z,16.12
2023-05-11T10:42:54.163Z,16.23
2023-05-11T10:45:30.492Z,16.31
2023-05-11T10:48:19.417Z,16.33
2023-05-11T10:51:01.128Z,16.37
2023-05-11T10:53:54.337Z,16.36
2023-05-11T10:56:26.209Z,16.28
2023-05-11T10:59:14.247Z,16.23
2023-05-11T11:01:42.201Z,16.11
2023-05-11T11:04:10.504Z,15.96
2023-05-11T11:06:44.323Z,15.91
2023-05-11T11:09:13.755Z,15.80
2023-05-11T11:11:42.817Z,15.68
2023-05-11T11:14:10.502Z,15.63
2023-05-11T11:16:37.696Z,15.59
2023-05-11T11:19:32.289Z,15.64
2023-05-11T11:22:00.539Z,15.63
2023-05-11T11:24:39.892Z,15.65
2023-05-11T11:27:08.528Z,15.61
2023-05-11T11:29:36.295Z,15.51
2023-05-11T11:32:22.100Z,15.51
2023-05-11T11:34:49.725Z,15.56
2023-05-11T11:37:17.967Z,15.61
2023-05-11T11:39:45.025Z,15.65
2023-05-11T11:42:12.954Z,15.66
2023-05-11T11:44:41.132Z,15.71
2023-05-11T11:47:14.228Z,15.79
2023-05-11T11:49:43.029Z,15.89
2023-05-11T11:52:14.646Z,15.95
2023-05-11T11:54:43.941Z,16.03
2023-05-11T11:57:35.296Z,16.13
2023-05-11T12:00:07.413Z,16.18
2023-05-11T12:02:35.199Z,16.21
2023-05-11T12:05:12.652Z,16.28
2023-05-11T12:07:43.901Z,16.33
2023-05-11T12:10:13.518Z,16.35
2023-05-11T12:12:41.368Z,16.39
2023-05-11T12:15:08.648Z,16.43
2023-05-11T12:17:38.712Z,16.43
2023-05-11T12:20:14.055Z,16.47
2023-05-11T12:22:41.239Z,16.55
2023-05-11T12:25:09.012Z,16.58
2023-05-11T12:27:36.682Z,16.62
2023-05-11T12:30:03.729Z,16.64
2023-05-11T12:32:31.912Z,16.67
2023-05-11T12:35:02.624Z,16.69
2023-05-11T12:37:31.189Z,16.68
2023-05-11T12:39:58.737Z,16.69
2023-05-11T12:42:26.107Z,16.63
2023-05-11T12:44:53.977Z,16.57
2023-05-11T12:47:20.840Z,16.52
2023-05-11T12:49:47.713Z,16.47
2023-05-11T12:52:14.564Z,16.42
2023-05-11T12:54:43.716Z,16.35
2023-05-11T12:57:25.191Z,16.31
2023-05-11T13:00:11.946Z,16.21
2023-05-11T13:02:50.025Z,16.12
2023-05-11T13:05:19.754Z,16.11
2023-05-11T13:07:47.580Z,16.06
2023-05-11T13:10:14.535Z,16.07
2023-05-11T13:12:51.978Z,16.11
2023-05-11T13:15:20.962Z,16.12
2023-05-11T13:17:48.772Z,16.16
2023-05-11T13:20:21.670Z,16.18
2023-05-11T13:22:49.634Z,16.16
2023-05-11T13:25:17.739Z,16.16
2023-05-11T13:27:44.827Z,16.15
2023-05-11T13:30:12.598Z,16.15
2023-05-11T13:32:39.951Z,16.15
2023-05-11T13:35:07.444Z,16.17
2023-05-11T13:37:34.369Z,16.17
2023-05-11T13:40:01.360Z,16.16
2023-05-11T13:42:29.388Z,16.18
2023-05-11T13:44:56.482Z,16.19
2023-05-11T13:47:23.455Z,16.23
2023-05-11T13:49:50.295Z,16.27
2023-05-11T13:52:17.152Z,16.33
2023-05-11T13:54:44.023Z,16.42
2023-05-11T13:57:11.056Z,16.51
2023-05-11T13:59:38.078Z,16.57
2023-05-11T14:02:05.088Z,16.63
2023-05-11T14:04:32.074Z,16.67
2023-05-11T14:06:59.194Z,16.69
2023-05-11T14:09:26.368Z,16.72
2023-05-11T14:11:53.170Z,16.75
2023-05-11T14:14:19.999Z,16.74
2023-05-11T14:16:46.789Z,16.76
2023-05-11T14:19:13.914Z,16.78
2023-05-11T14:21:40.909Z,16.81
2023-05-11T14:24:12.570Z,16.88
2023-05-11T14:26:40.241Z,16.97
2023-05-11T14:29:07.685Z,17.01
2023-05-11T14:31:35.910Z,17.03
2023-05-11T14:34:04.192Z,17.11
2023-05-11T14:36:32.024Z,17.17
2023-05-11T14:38:58.967Z,17.22
2023-05-11T14:41:25.931Z,17.25
2023-05-11T14:43:52.744Z,17.28
2023-05-11T14:46:19.760Z,17.32
2023-05-11T14:48:46.672Z,17.32
2023-05-11T14:51:13.691Z,17.31
2023-05-11T14:53:40.666Z,17.32
2023-05-11T14:56:07.787Z,17.36
2023-05-11T14:58:34.637Z,17.35
2023-05-11T15:01:01.524Z,17.35
2023-05-11T15:03:28.502Z,17.30
2023-05-11T15:05:55.378Z,17.25
2023-05-11T15:08:29.572Z,17.24
2023-05-11T15:10:57.527Z,17.22
2023-05-11T15:13:24.509Z,17.19
2023-05-11T15:15:52.263Z,17.16
2023-05-11T15:18:19.533Z,17.10
2023-05-11T15:20:46.748Z,17.06
2023-05-11T15:23:17.180Z,17.03
2023-05-11T15:25:47.131Z,17.00
2023-05-11T15:28:14.324Z,16.96
2023-05-11T15:30:42.319Z,16.94
2023-05-11T15:33:10.322Z,16.93
2023-05-11T15:35:38.098Z,16.94
2023-05-11T15:38:06.618Z,16.97
2023-05-11T15:40:33.503Z,16.99
2023-05-11T15:43:00.796Z,17.01
2023-05-11T15:45:28.080Z,17.01
2023-05-11T15:47:55.026Z,17.03
2023-05-11T15:50:22.390Z,17.05
2023-05-11T15:52:49.398Z,17.06
2023-05-11T15:55:16.464Z,17.07
2023-05-11T15:57:43.292Z,17.07
2023-05-11T16:00:11.597Z,17.09
2023-05-11T16:02:38.830Z,17.10
2023-05-11T16:05:06.152Z,17.10
2023-05-11T16:07:33.038Z,17.12
2023-05-11T16:09:59.970Z,17.15
2023-05-11T16:12:26.961Z,17.17
2023-05-11T16:14:53.743Z,17.19
2023-05-11T16:17:21.047Z,17.21
2023-05-11T16:19:47.879Z,17.21
2023-05-11T16:22:14.733Z,17.23
2023-05-11T16:24:41.697Z,17.22
2023-05-11T16:27:08.569Z,17.24
2023-05-11T16:29:35.667Z,17.24
2023-05-11T16:32:02.562Z,17.27
2023-05-11T16:34:29.417Z,17.28
2023-05-11T16:36:58.600Z,17.29
2023-05-11T16:39:25.902Z,17.32
2023-05-11T16:41:52.711Z,17.33
2023-05-11T16:44:19.616Z,17.33
2023-05-11T16:46:46.446Z,17.35
2023-05-11T16:49:13.366Z,17.35
2023-05-11T16:51:40.242Z,17.37
2023-05-11T16:54:07.368Z,17.39
2023-05-11T16:56:34.164Z,17.38
2023-05-11T16:59:01.056Z,17.39
2023-05-11T17:01:28.608Z,17.36
2023-05-11T17:03:55.508Z,17.34
2023-05-11T17:06:24.109Z,17.33
2023-05-11T17:08:51.468Z,17.29
2023-05-11T17:11:18.285Z,17.25
2023-05-11T17:13:45.156Z,17.19
2023-05-11T17:16:12.187Z,17.16
2023-05-11T17:18:39.104Z,17.11
2023-05-11T17:21:06.209Z,17.08
2023-05-11T17:23:34.088Z,17.07
2023-05-11T17:26:08.110Z,17.05
2023-05-11T17:28:34.932Z,17.02
2023-05-11T17:31:08.872Z,17.00
2023-05-11T17:33:35.813Z,16.98
2023-05-11T17:36:02.778Z,16.95
2023-05-11T17:38:29.797Z,16.91
2023-05-11T17:40:59.703Z,16.90
2023-05-11T17:43:26.738Z,16.86
2023-05-11T17:45:53.614Z,16.82
2023-05-11T17:48:20.454Z,16.80
2023-05-11T17:50:47.377Z,16.76
2023-05-11T17:53:14.242Z,16.73
2023-05-11T17:55:42.712Z,16.69
2023-05-11T17:58:10.058Z,16.66
2023-05-11T18:00:40.012Z,16.63
2023-05-11T18:03:06.974Z,16.60
2023-05-11T18:05:47.497Z,16.56
2023-05-11T18:08:15.689Z,16.52
2023-05-11T18:10:42.598Z,16.48
2023-05-11T18:13:09.914Z,16.44
2023-05-11T18:15:37.370Z,16.42
2023-05-11T18:18:04.293Z,16.35
2023-05-11T18:20:31.168Z,16.33
2023-05-11T18:22:58.390Z,16.25
2023-05-11T18:25:25.274Z,16.21
2023-05-11T18:27:52.267Z,16.16
2023-05-11T18:30:19.402Z,16.08
2023-05-11T18:32:46.530Z,16.05
2023-05-11T18:35:13.425Z,16.01
2023-05-11T18:37:40.366Z,15.95
2023-05-11T18:40:08.004Z,15.92
2023-05-11T18:42:34.794Z,15.83
2023-05-11T18:45:02.102Z,15.73
2023-05-11T18:47:29.057Z,15.73
2023-05-11T18:49:57.517Z,15.68
2023-05-11T18:52:24.377Z,15.62
2023-05-11T18:54:51.313Z,15.55
2023-05-11T18:57:20.473Z,15.55
2023-05-11T18:59:51.593Z,15.46
2023-05-11T19:02:19.794Z,15.44
2023-05-11T19:04:46.625Z,15.46
2023-05-11T19:07:13.465Z,15.44
2023-05-11T19:09:40.326Z,15.43
2023-05-11T19:12:07.598Z,15.40
2023-05-11T19:14:35.040Z,15.36
2023-05-11T19:17:04.780Z,15.38
2023-05-11T19:19:31.713Z,15.35
2023-05-11T19:21:59.442Z,15.35
2023-05-11T19:24:26.356Z,15.29
2023-05-11T19:27:05.945Z,15.27
2023-05-11T19:29:33.971Z,15.24
2023-05-11T19:32:01.028Z,15.25
2023-05-11T19:34:28.318Z,15.28
2023-05-11T19:36:55.127Z,15.28
2023-05-11T19:39:21.921Z,15.26
2023-05-11T19:41:48.774Z,15.27
2023-05-11T19:44:15.608Z,15.23
2023-05-11T19:46:47.012Z,15.22
2023-05-11T19:49:15.535Z,15.21
2023-05-11T19:51:43.375Z,15.17
2023-05-11T19:54:11.230Z,15.16
2023-05-11T19:56:38.531Z,15.11
